Schneifelwetter: Wetterstation Hallschlag, 537 m . NN
Wetterdaten: Mittwoch, 19.09.2012
Datum Zeit Temp. A. Feuchte A. Luftdruck Regen Wind Richtung Richtung Sonnenschein T Regen Taupunkt Windchill
19.09.2012 00:14 4,9 C 90 % 1014 hPa 0,0 l/m 0,0 km/h (0 Bft) W 260 0 min 0 min 3,4 C 4,9 C
19.09.2012 00:29 4,4 C 90 % 1014 hPa 0,0 l/m 0,0 km/h (0 Bft) W 260 0 min 0 min 2,9 C 4,4 C
19.09.2012 00:44 4,0 C 91 % 1014 hPa 0,0 l/m 0,0 km/h (0 Bft) W 260 0 min 0 min 2,7 C 4,0 C
19.09.2012 00:59 3,7 C 91 % 1014 hPa 0,0 l/m 0,0 km/h (0 Bft) W 260 0 min 0 min 2,4 C 3,7 C
19.09.2012 01:14 3,2 C 91 % 1014 hPa 0,0 l/m 0,0 km/h (0 Bft) W 260 0 min 0 min 1,9 C 3,2 C
19.09.2012 01:29 2,9 C 91 % 1014 hPa 0,0 l/m 0,0 km/h (0 Bft) W 260 0 min 0 min 1,6 C 2,9 C
19.09.2012 01:44 2,7 C 92 % 1014 hPa 0,0 l/m 0,0 km/h (0 Bft) W 260 0 min 0 min 1,5 C 2,7 C
19.09.2012 01:59 2,8 C 92 % 1014 hPa 0,0 l/m 0,0 km/h (0 Bft) W 260 0 min 0 min 1,6 C 2,8 C
19.09.2012 02:14 2,7 C 93 % 1014 hPa 0,0 l/m 0,0 km/h (0 Bft) W 260 0 min 0 min 1,7 C 2,7 C
19.09.2012 02:29 2,8 C 93 % 1014 hPa 0,0 l/m 0,0 km/h (0 Bft) W 260 0 min 0 min 1,8 C 2,8 C
19.09.2012 02:44 3,2 C 94 % 1014 hPa 0,0 l/m 4,8 km/h (1 Bft) W 260 0 min 0 min 2,3 C 3,2 C
19.09.2012 02:59 3,5 C 94 % 1014 hPa 0,0 l/m 6,3 km/h (2 Bft) W 260 0 min 0 min 2,6 C 3,5 C
19.09.2012 03:14 4,3 C 95 % 1015 hPa 0,0 l/m 7,0 km/h (2 Bft) W 260 0 min 0 min 3,6 C 3,8 C
19.09.2012 03:29 5,2 C 95 % 1015 hPa 0,0 l/m 7,2 km/h (2 Bft) W 260 0 min 0 min 4,5 C 4,5 C
19.09.2012 03:44 5,3 C 94 % 1015 hPa 0,0 l/m 2,2 km/h (1 Bft) W 260 0 min 0 min 4,4 C 5,3 C
19.09.2012 03:59 5,3 C 94 % 1015 hPa 0,0 l/m 5,5 km/h (1 Bft) W 260 0 min 0 min 4,4 C 5,3 C
19.09.2012 04:14 5,2 C 94 % 1015 hPa 0,0 l/m 0,3 km/h (0 Bft) W 260 0 min 0 min 4,3 C 5,2 C
19.09.2012 04:29 4,9 C 94 % 1015 hPa 0,0 l/m 0,7 km/h (0 Bft) W 260 0 min 0 min 4,0 C 4,9 C
19.09.2012 04:44 4,5 C 94 % 1015 hPa 0,0 l/m 0,0 km/h (0 Bft) W 260 0 min 0 min 3,6 C 4,5 C
19.09.2012 04:59 4,0 C 93 % 1015 hPa 0,0 l/m 0,0 km/h (0 Bft) W 260 0 min 0 min 3,0 C 4,0 C
19.09.2012 05:14 3,6 C 93 % 1015 hPa 0,0 l/m 0,0 km/h (0 Bft) W 260 0 min 0 min 2,6 C 3,6 C
19.09.2012 05:29 3,1 C 94 % 1015 hPa 0,0 l/m 0,0 km/h (0 Bft) W 260 0 min 0 min 2,2 C 3,1 C
19.09.2012 05:44 2,7 C 94 % 1015 hPa 0,0 l/m 6,4 km/h (2 Bft) W 260 0 min 0 min 1,8 C 2,7 C
19.09.2012 05:59 2,4 C 94 % 1015 hPa 0,0 l/m 2,8 km/h (1 Bft) W 260 0 min 0 min 1,5 C 2,4 C
19.09.2012 06:14 2,2 C 94 % 1015 hPa 0,3 l/m 5,0 km/h (1 Bft) W 260 0 min 15 min 1,3 C 2,2 C
19.09.2012 06:29 1,9 C 94 % 1015 hPa 0,0 l/m 0,6 km/h (0 Bft) W 260 0 min 0 min 1,0 C 1,9 C
19.09.2012 06:44 1,7 C 94 % 1015 hPa 0,0 l/m 3,9 km/h (1 Bft) W 260 0 min 0 min 0,8 C 1,7 C
19.09.2012 06:59 1,7 C 94 % 1015 hPa 0,0 l/m 7,2 km/h (2 Bft) W 260 0 min 0 min 0,8 C 0,9 C
19.09.2012 07:14 1,6 C 94 % 1015 hPa 0,0 l/m 5,1 km/h (1 Bft) W 260 0 min 0 min 0,7 C 1,6 C
19.09.2012 07:29 1,9 C 95 % 1016 hPa 0,0 l/m 6,1 km/h (2 Bft) W 260 0 min 0 min 1,2 C 1,9 C
19.09.2012 07:44 1,9 C 95 % 1016 hPa 0,0 l/m 4,6 km/h (1 Bft) W 260 0 min 0 min 1,2 C 1,9 C
19.09.2012 07:59 1,9 C 95 % 1016 hPa 0,0 l/m 3,8 km/h (1 Bft) W 260 0 min 0 min 1,2 C 1,9 C
19.09.2012 08:14 2,1 C 95 % 1016 hPa 0,0 l/m 2,7 km/h (1 Bft) W 260 0 min 0 min 1,4 C 2,1 C
19.09.2012 08:29 2,5 C 96 % 1016 hPa 0,0 l/m 4,2 km/h (1 Bft) W 260 0 min 0 min 1,9 C 2,5 C
19.09.2012 08:44 3,5 C 96 % 1016 hPa 0,0 l/m 11,0 km/h (2 Bft) W 260 0 min 0 min 2,9 C -0,3 C
19.09.2012 08:59 4,2 C 96 % 1016 hPa 0,0 l/m 33,8 km/h (5 Bft) W 260 0 min 0 min 3,6 C -8,4 C
19.09.2012 09:15 4,8 C 97 % 1017 hPa 0,0 l/m 16,7 km/h (3 Bft) W-SW 250 0 min 0 min 4,4 C -2,0 C
19.09.2012 09:29 5,6 C 96 % 1017 hPa 0,0 l/m 15,8 km/h (3 Bft) W-SW22.5 255 0 min 0 min 5,0 C -0,6 C
19.09.2012 09:44 6,6 C 96 % 1017 hPa 0,0 l/m 22,6 km/h (4 Bft) W22.5 275 0 min 0 min 6,0 C -2,0 C
19.09.2012 09:59 7,3 C 94 % 1017 hPa 0,0 l/m 22,1 km/h (4 Bft) W45 275 0 min 0 min 6,4 C -0,9 C
19.09.2012 10:14 8,3 C 92 % 1017 hPa 0,0 l/m 26,1 km/h (4 Bft) W45 270 0 min 0 min 7,1 C -0,8 C
19.09.2012 10:29 8,9 C 87 % 1017 hPa 0,0 l/m 26,6 km/h (4 Bft) W45 270 0 min 0 min 6,9 C -0,1 C
19.09.2012 10:45 9,1 C 83 % 1017 hPa 0,0 l/m 29,0 km/h (5 Bft) W22.5 270 0 min 0 min 6,4 C -0,4 C
19.09.2012 10:59 9,3 C 81 % 1017 hPa 0,0 l/m 30,5 km/h (5 Bft) W45 265 0 min 0 min 6,2 C -0,4 C
19.09.2012 11:14 9,9 C 79 % 1017 hPa 0,0 l/m 31,7 km/h (5 Bft) W45 275 0 min 0 min 6,4 C 0,2 C
19.09.2012 11:29 9,9 C 75 % 1018 hPa 0,0 l/m 30,6 km/h (5 Bft) W45 275 0 min 0 min 5,7 C 0,4 C
19.09.2012 11:44 9,8 C 74 % 1018 hPa 0,0 l/m 36,4 km/h (5 Bft) W45 275 0 min 0 min 5,4 C -0,8 C
19.09.2012 11:59 10,6 C 71 % 1018 hPa 0,0 l/m 29,6 km/h (5 Bft) W-NW45 285 0 min 0 min 5,6 C 1,6 C
19.09.2012 12:14 11,1 C 68 % 1018 hPa 0,0 l/m 23,2 km/h (4 Bft) W45 260 0 min 0 min 5,4 C 3,8 C
19.09.2012 12:29 11,2 C 69 % 1018 hPa 0,0 l/m 26,6 km/h (4 Bft) W45 275 0 min 0 min 5,7 C 3,1 C
19.09.2012 12:44 10,7 C 66 % 1018 hPa 0,0 l/m 38,3 km/h (5 Bft) W45 275 0 min 0 min 4,6 C 0,2 C
19.09.2012 13:00 11,3 C 69 % 1018 hPa 0,0 l/m 27,7 km/h (4 Bft) W45 270 0 min 0 min 5,8 C 3,0 C
19.09.2012 13:14 11,7 C 63 % 1018 hPa 0,0 l/m 30,2 km/h (5 Bft) W67.5 270 0 min 0 min 4,9 C 3,0 C
19.09.2012 13:29 11,7 C 65 % 1018 hPa 0,0 l/m 28,5 km/h (4 Bft) W67.5 265 0 min 0 min 5,3 C 3,4 C
19.09.2012 13:44 12,0 C 60 % 1018 hPa 0,0 l/m 31,1 km/h (5 Bft) W22.5 270 0 min 0 min 4,5 C 3,3 C
19.09.2012 13:59 12,4 C 61 % 1018 hPa 0,0 l/m 27,2 km/h (4 Bft) W67.5 260 0 min 0 min 5,1 C 4,6 C
19.09.2012 14:14 12,4 C 62 % 1018 hPa 0,0 l/m 31,1 km/h (5 Bft) W22.5 260 0 min 0 min 5,3 C 3,8 C
19.09.2012 14:30 11,8 C 62 % 1018 hPa 0,0 l/m 27,2 km/h (4 Bft) W67.5 270 0 min 0 min 4,8 C 3,8 C
19.09.2012 14:44 11,2 C 61 % 1018 hPa 0,0 l/m 21,5 km/h (4 Bft) W45 270 0 min 0 min 4,0 C 4,4 C
19.09.2012 14:59 11,6 C 59 % 1018 hPa 0,0 l/m 22,1 km/h (4 Bft) W-NW67.5 285 0 min 0 min 3,9 C 4,7 C
19.09.2012 15:14 11,6 C 61 % 1018 hPa 0,0 l/m 26,5 km/h (4 Bft) W22.5 275 0 min 0 min 4,3 C 3,6 C
19.09.2012 15:29 10,8 C 60 % 1018 hPa 0,0 l/m 20,6 km/h (4 Bft) W-NW45 295 0 min 0 min 3,4 C 4,1 C
19.09.2012 15:44 11,7 C 61 % 1018 hPa 0,0 l/m 28,1 km/h (4 Bft) W22.5 270 0 min 0 min 4,4 C 3,4 C
19.09.2012 16:00 12,5 C 57 % 1018 hPa 0,0 l/m 28,6 km/h (4 Bft) W45 260 0 min 0 min 4,2 C 4,4 C
19.09.2012 16:14 12,1 C 57 % 1019 hPa 0,0 l/m 27,4 km/h (4 Bft) W45 275 0 min 0 min 3,8 C 4,1 C
19.09.2012 16:29 11,8 C 61 % 1019 hPa 0,0 l/m 21,9 km/h (4 Bft) W22.5 270 0 min 0 min 4,5 C 5,1 C
19.09.2012 16:44 12,1 C 60 % 1019 hPa 0,0 l/m 19,9 km/h (4 Bft) W22.5 260 0 min 0 min 4,6 C 6,0 C
19.09.2012 16:59 12,0 C 58 % 1019 hPa 0,0 l/m 21,8 km/h (4 Bft) W45 280 0 min 0 min 4,0 C 5,4 C
19.09.2012 17:14 12,5 C 58 % 1019 hPa 0,0 l/m 30,6 km/h (5 Bft) W45 270 0 min 0 min 4,5 C 4,1 C
19.09.2012 17:30 12,0 C 59 % 1019 hPa 0,0 l/m 31,4 km/h (5 Bft) W45 260 0 min 0 min 4,2 C 3,2 C
19.09.2012 17:44 11,6 C 59 % 1019 hPa 0,0 l/m 24,1 km/h (4 Bft) W45 260 0 min 0 min 3,9 C 4,2 C
19.09.2012 17:59 11,8 C 60 % 1019 hPa 0,0 l/m 23,6 km/h (4 Bft) W45 275 0 min 0 min 4,3 C 4,6 C
19.09.2012 18:14 10,9 C 62 % 1019 hPa 0,0 l/m 29,7 km/h (5 Bft) W45 275 0 min 0 min 3,9 C 2,0 C
19.09.2012 18:29 10,2 C 64 % 1019 hPa 0,0 l/m 26,3 km/h (4 Bft) W67.5 260 0 min 0 min 3,7 C 1,8 C
19.09.2012 18:44 10,0 C 65 % 1019 hPa 0,0 l/m 18,8 km/h (3 Bft) W45 275 0 min 0 min 3,7 C 3,7 C
19.09.2012 19:00 10,0 C 66 % 1019 hPa 0,0 l/m 20,4 km/h (4 Bft) W22.5 275 0 min 0 min 3,9 C 3,2 C
19.09.2012 19:14 9,2 C 67 % 1019 hPa 0,0 l/m 22,2 km/h (4 Bft) W45 280 0 min 0 min 3,4 C 1,5 C
19.09.2012 19:29 8,5 C 70 % 1019 hPa 0,0 l/m 18,0 km/h (3 Bft) W45 270 0 min 0 min 3,3 C 2,1 C
19.09.2012 19:44 8,2 C 72 % 1019 hPa 0,0 l/m 14,5 km/h (3 Bft) W22.5 265 0 min 0 min 3,5 C 3,2 C
19.09.2012 19:59 8,0 C 74 % 1019 hPa 0,0 l/m 16,0 km/h (3 Bft) W-SW 255 0 min 0 min 3,7 C 2,3 C
19.09.2012 20:14 7,7 C 74 % 1020 hPa 0,0 l/m 10,4 km/h (2 Bft) W 280 0 min 0 min 3,4 C 4,8 C
19.09.2012 20:29 7,4 C 75 % 1020 hPa 0,0 l/m 8,5 km/h (2 Bft) W 260 0 min 0 min 3,3 C 5,8 C
19.09.2012 20:44 7,0 C 76 % 1020 hPa 0,0 l/m 0,3 km/h (0 Bft) W 260 0 min 0 min 3,1 C 7,0 C
19.09.2012 20:59 6,1 C 76 % 1020 hPa 0,0 l/m 0,0 km/h (0 Bft) W 260 0 min 0 min 2,2 C 6,1 C
19.09.2012 21:14 5,6 C 78 % 1020 hPa 0,0 l/m 1,0 km/h (0 Bft) W 260 0 min 0 min 2,1 C 5,6 C
19.09.2012 21:29 6,1 C 82 % 1020 hPa 0,0 l/m 18,1 km/h (3 Bft) W22.5 275 0 min 0 min 3,3 C -1,0 C
19.09.2012 21:45 6,0 C 81 % 1020 hPa 0,0 l/m 8,4 km/h (2 Bft) W-SW 250 0 min 0 min 3,0 C 4,3 C
19.09.2012 21:59 5,5 C 81 % 1020 hPa 0,0 l/m 5,1 km/h (1 Bft) W-SW 250 0 min 0 min 2,5 C 5,5 C
19.09.2012 22:14 4,9 C 81 % 1021 hPa 0,0 l/m 6,5 km/h (2 Bft) W-SW 250 0 min 0 min 1,9 C 4,8 C
19.09.2012 22:29 4,4 C 82 % 1021 hPa 0,0 l/m 0,0 km/h (0 Bft) W-SW 250 0 min 0 min 1,6 C 4,4 C
19.09.2012 22:44 3,9 C 82 % 1021 hPa 0,0 l/m 0,0 km/h (0 Bft) W-SW 250 0 min 0 min 1,1 C 3,9 C
19.09.2012 22:59 3,4 C 82 % 1021 hPa 0,0 l/m 0,0 km/h (0 Bft) W-SW 250 0 min 0 min 0,6 C 3,4 C
19.09.2012 23:15 3,0 C 84 % 1021 hPa 0,0 l/m 0,0 km/h (0 Bft) W-SW 250 0 min 0 min 0,6 C 3,0 C
19.09.2012 23:29 2,6 C 84 % 1021 hPa 0,0 l/m 0,0 km/h (0 Bft) W-SW 250 0 min 0 min 0,2 C 2,6 C
19.09.2012 23:44 2,3 C 85 % 1021 hPa 0,0 l/m 0,0 km/h (0 Bft) W-SW 250 0 min 0 min 0,0 C 2,3 C
19.09.2012 23:59 2,0 C 86 % 1021 hPa 0,0 l/m 0,0 km/h (0 Bft) W-SW 250 0 min 0 min -0,1 C 2,0 C
_ Min-Zeit 07:14 16:00 00:14 - 00:14 - - - - 23:59 08:59
Minimum _ 1,6 C 57 % 1014 hPa - 0,0 km/h (0 Bft) - - - - -0,1 C -8,4 C
_ Max-Zeit 16:00 09:15 22:14 06:14 12:44 - - 00:14 06:14 10:14 20:44
Maximum _ 12,5 C 97 % 1021 hPa 0,3 l/m 38,3 km/h
W (5 Bft)
- - 0 min 15 min 7,1 C 7,0 C
Durchschnitt _ 6,8 C 80 % 1017 hPa #0,3 l/m 13,7 km/h (3 Bft) W - #0 min. #15 min. 3,4 C 2,8 C